Time;durP1;ratioP1;P1;durP2;ratioP2;P2;SDS_P1;SDS_P2;PMS_P1;PMS_P2;Temp;Humidity;BMP_temperature;BMP_pressure;BME280_temperature;BME280_humidity;BME280_pressure;Samples;Min_cycle;Max_cycle;Signal;HPM_P1;HPM_P2
2022/07/15 00:00:15;;;;;;;5.38;1.48;;;13.70;99.90;;;;;;6229167;22;20015;-93
2022/07/15 00:02:41;;;;;;;6.57;1.48;;;13.70;99.90;;;;;;6224874;22;20065;-92
2022/07/15 00:05:07;;;;;;;7.65;1.63;;;13.70;99.90;;;;;;6225369;22;20381;-93
2022/07/15 00:07:34;;;;;;;6.10;1.40;;;13.60;99.90;;;;;;6224555;22;20015;-93
2022/07/15 00:10:15;;;;;;;6.22;1.75;;;13.70;99.90;;;;;;6226566;22;20322;-92
2022/07/15 00:12:44;;;;;;;6.70;1.65;;;13.70;99.90;;;;;;6225654;22;20090;-93
2022/07/15 00:15:10;;;;;;;5.60;1.50;;;13.80;99.90;;;;;;6226587;22;20027;-92
2022/07/15 00:17:36;;;;;;;6.45;1.38;;;13.80;99.90;;;;;;6225175;22;20414;-92
2022/07/15 00:20:03;;;;;;;7.50;1.83;;;13.70;99.90;;;;;;6225537;22;20023;-93
2022/07/15 00:22:29;;;;;;;6.97;1.77;;;13.80;99.90;;;;;;6225460;22;20022;-93
2022/07/15 00:24:55;;;;;;;5.10;1.75;;;13.80;99.90;;;;;;6225810;22;20008;-93
2022/07/15 00:27:23;;;;;;;7.03;1.60;;;13.80;99.90;;;;;;6224602;22;20520;-93
2022/07/15 00:29:50;;;;;;;8.63;1.88;;;13.80;99.90;;;;;;6200861;22;20016;-93
2022/07/15 00:32:18;;;;;;;6.30;1.23;;;13.90;99.90;;;;;;6225624;22;20023;-92
2022/07/15 00:34:44;;;;;;;6.40;1.60;;;13.80;99.90;;;;;;6199993;22;20015;-92
2022/07/15 00:37:11;;;;;;;6.30;1.60;;;13.80;99.90;;;;;;6199027;22;20074;-93
2022/07/15 00:39:37;;;;;;;5.50;1.42;;;13.90;99.90;;;;;;6200467;22;20022;-93
2022/07/15 00:42:03;;;;;;;6.00;1.58;;;13.90;99.90;;;;;;6199607;22;20008;-93
2022/07/15 00:44:30;;;;;;;5.25;2.00;;;13.90;99.90;;;;;;6224427;22;20093;-93
2022/07/15 00:46:56;;;;;;;8.93;2.20;;;13.90;99.90;;;;;;6225441;22;20011;-93
2022/07/15 00:49:22;;;;;;;6.53;1.67;;;13.90;99.90;;;;;;6225827;22;20094;-92
2022/07/15 00:51:51;;;;;;;7.10;1.70;;;13.80;99.90;;;;;;6227560;22;20015;-93
2022/07/15 00:54:25;;;;;;;7.60;1.80;;;14.50;99.90;;;;;;6227587;22;20008;-92
2022/07/15 00:56:57;;;;;;;4.20;1.30;;;13.70;99.90;;;;;;6228746;22;20008;-92
2022/07/15 00:59:28;;;;;;;5.53;1.52;;;13.60;99.90;;;;;;6203849;22;20026;-93
2022/07/15 01:01:56;;;;;;;9.85;2.15;;;13.50;99.90;;;;;;6229154;22;20022;-93
2022/07/15 01:04:23;;;;;;;8.05;1.48;;;13.50;99.90;;;;;;6202939;22;20023;-92
2022/07/15 01:06:49;;;;;;;6.35;1.50;;;13.40;99.90;;;;;;6230173;22;20022;-92
2022/07/15 01:09:15;;;;;;;6.65;1.20;;;13.40;99.90;;;;;;6229064;22;20035;-93
2022/07/15 01:11:41;;;;;;;4.57;1.70;;;13.30;99.90;;;;;;6227959;22;20019;-93
2022/07/15 01:14:13;;;;;;;6.03;1.25;;;13.10;99.90;;;;;;6203215;22;20413;-93
2022/07/15 01:16:41;;;;;;;5.00;1.40;;;13.10;99.90;;;;;;6226129;22;20035;-92
2022/07/15 01:19:07;;;;;;;4.78;1.30;;;13.10;99.90;;;;;;6200841;22;20342;-93
2022/07/15 01:21:33;;;;;;;5.20;1.45;;;13.10;99.90;;;;;;6201403;22;20012;-93
2022/07/15 01:24:00;;;;;;;5.25;1.50;;;13.00;99.90;;;;;;6202438;22;20021;-93
2022/07/15 01:26:25;;;;;;;7.25;1.70;;;13.00;99.90;;;;;;6201510;22;20069;-93
2022/07/15 01:28:51;;;;;;;6.18;1.73;;;13.00;99.90;;;;;;6201571;22;20015;-91
2022/07/15 01:31:17;;;;;;;4.82;1.40;;;13.10;99.90;;;;;;6226055;22;20015;-91
2022/07/15 01:33:43;;;;;;;7.05;1.75;;;13.10;99.90;;;;;;6225826;22;20012;-93
2022/07/15 01:36:09;;;;;;;8.00;1.48;;;13.30;99.90;;;;;;6200401;22;20499;-92
2022/07/15 01:38:35;;;;;;;7.88;1.77;;;13.30;99.90;;;;;;6200377;22;20011;-92
2022/07/15 01:41:04;;;;;;;5.32;1.30;;;13.30;99.90;;;;;;6225059;22;20309;-93
2022/07/15 01:43:30;;;;;;;9.27;1.30;;;13.30;99.90;;;;;;6226536;22;20349;-92
2022/07/15 01:45:55;;;;;;;6.75;1.27;;;13.30;99.90;;;;;;6201289;22;20012;-93
2022/07/15 01:51:06;;;;;;;5.43;1.20;;;13.30;99.90;;;;;;6228756;22;20020;-93
2022/07/15 01:53:32;;;;;;;4.35;1.15;;;13.30;99.90;;;;;;6200643;22;20339;-93
2022/07/15 01:55:58;;;;;;;9.23;1.67;;;13.20;99.90;;;;;;6200822;22;20081;-93
2022/07/15 01:58:24;;;;;;;4.60;1.10;;;13.20;99.90;;;;;;6200662;22;20382;-93
2022/07/15 02:00:50;;;;;;;6.53;1.17;;;13.20;99.90;;;;;;6225810;22;20007;-93
2022/07/15 02:03:16;;;;;;;3.33;1.00;;;13.20;99.90;;;;;;6225822;22;20012;-93
2022/07/15 02:05:42;;;;;;;5.40;1.35;;;13.20;99.90;;;;;;6200349;22;20064;-92
2022/07/15 02:08:08;;;;;;;3.83;1.05;;;13.20;99.90;;;;;;6200449;22;20039;-92
2022/07/15 02:10:40;;;;;;;5.05;1.00;;;13.20;99.90;;;;;;6225083;22;20031;-91
2022/07/15 02:13:10;;;;;;;5.00;1.00;;;13.20;99.90;;;;;;6201627;22;20015;-92
2022/07/15 02:15:37;;;;;;;4.40;1.10;;;13.20;99.90;;;;;;6225088;22;20122;-92
2022/07/15 02:18:03;;;;;;;4.30;1.20;;;13.10;99.90;;;;;;6195362;23;20307;-92
2022/07/15 02:20:29;;;;;;;4.03;1.05;;;13.10;99.90;;;;;;6195304;23;20070;-93
2022/07/15 02:22:57;;;;;;;8.10;1.77;;;13.10;99.90;;;;;;6219056;23;20015;-93
2022/07/15 02:25:31;;;;;;;5.53;1.30;;;13.00;99.90;;;;;;6195371;23;20019;-92
2022/07/15 02:27:59;;;;;;;3.90;0.83;;;13.00;99.90;;;;;;6220378;23;20020;-93
2022/07/15 02:30:27;;;;;;;3.13;0.90;;;12.90;99.90;;;;;;6219573;23;20013;-93
2022/07/15 02:32:53;;;;;;;5.63;1.00;;;12.80;99.90;;;;;;6195194;23;20096;-93
2022/07/15 02:35:19;;;;;;;4.63;0.88;;;12.70;99.90;;;;;;6194848;23;20016;-92
2022/07/15 02:37:46;;;;;;;4.72;0.90;;;12.70;99.90;;;;;;6193915;23;20022;-91
2022/07/15 02:40:12;;;;;;;2.85;1.08;;;12.60;99.90;;;;;;6220110;23;20047;-93
2022/07/15 02:42:38;;;;;;;3.92;1.25;;;12.60;99.90;;;;;;6194601;23;20008;-92
2022/07/15 02:45:05;;;;;;;1.90;0.90;;;12.60;99.90;;;;;;6219776;23;20019;-92
2022/07/15 02:47:31;;;;;;;4.13;1.00;;;12.60;99.90;;;;;;6193627;23;20022;-92
2022/07/15 02:49:58;;;;;;;4.07;1.85;;;12.60;99.90;;;;;;6194894;23;20022;-92
2022/07/15 02:52:26;;;;;;;2.63;0.88;;;12.60;99.90;;;;;;6218474;23;20327;-92
2022/07/15 02:54:52;;;;;;;6.90;1.90;;;12.50;99.90;;;;;;6194360;23;20055;-93
2022/07/15 02:57:18;;;;;;;2.78;0.77;;;12.60;99.90;;;;;;6194039;23;20016;-92
2022/07/15 02:59:47;;;;;;;3.92;0.88;;;12.50;99.90;;;;;;6194597;23;20450;-92
2022/07/15 03:02:12;;;;;;;5.00;0.90;;;12.60;99.90;;;;;;6194005;23;20480;-92
2022/07/15 03:04:38;;;;;;;3.38;0.85;;;12.60;99.90;;;;;;6194141;23;20016;-93
2022/07/15 03:07:04;;;;;;;1.20;0.60;;;12.70;99.90;;;;;;6194146;23;20074;-92
2022/07/15 03:09:30;;;;;;;1.85;0.70;;;12.80;99.90;;;;;;6193767;23;20016;-93
2022/07/15 03:11:56;;;;;;;5.20;1.30;;;12.80;99.90;;;;;;6193283;23;20016;-93
2022/07/15 03:14:21;;;;;;;2.25;0.73;;;12.80;99.90;;;;;;6193447;23;20012;-92
2022/07/15 03:16:47;;;;;;;2.80;0.85;;;12.90;99.90;;;;;;6193864;23;20012;-92
2022/07/15 03:19:13;;;;;;;3.22;0.60;;;12.90;99.90;;;;;;6193892;23;20020;-93
2022/07/15 03:21:39;;;;;;;3.42;0.93;;;12.90;99.90;;;;;;6194300;23;20338;-94
2022/07/15 03:24:07;;;;;;;1.65;0.88;;;12.90;99.90;;;;;;6193467;23;20012;-93
2022/07/15 03:26:33;;;;;;;4.00;0.90;;;12.80;99.90;;;;;;6194465;23;20012;-93
2022/07/15 03:29:00;;;;;;;5.57;1.50;;;12.80;99.90;;;;;;6193765;23;20012;-93
2022/07/15 03:31:26;;;;;;;3.83;1.27;;;12.70;99.90;;;;;;6194398;23;20016;-93
2022/07/15 03:33:53;;;;;;;3.13;1.00;;;12.70;99.90;;;;;;6193581;23;20024;-92
2022/07/15 03:36:19;;;;;;;2.95;0.85;;;12.70;99.90;;;;;;6192817;23;20027;-94
2022/07/15 03:38:45;;;;;;;3.10;0.95;;;12.70;99.90;;;;;;6218623;23;20016;-93
2022/07/15 03:41:11;;;;;;;6.80;1.95;;;12.70;99.90;;;;;;6193795;23;20012;-93
2022/07/15 03:43:36;;;;;;;10.38;2.10;;;12.70;99.90;;;;;;6194743;23;20012;-93
2022/07/15 03:46:02;;;;;;;4.15;1.80;;;12.70;99.90;;;;;;6194224;23;20023;-93
2022/07/15 03:48:28;;;;;;;6.43;1.75;;;12.70;99.90;;;;;;6194403;23;20392;-92
2022/07/15 03:50:54;;;;;;;4.72;1.60;;;12.40;99.90;;;;;;6195382;23;20035;-93
2022/07/15 03:53:20;;;;;;;6.00;2.28;;;12.70;99.90;;;;;;6195136;23;20172;-94
2022/07/15 03:55:46;;;;;;;3.83;1.63;;;12.70;99.90;;;;;;6195073;23;20016;-93
2022/07/15 03:58:11;;;;;;;5.10;1.60;;;12.80;99.90;;;;;;6195548;23;20020;-93
2022/07/15 04:00:37;;;;;;;4.68;1.70;;;12.80;99.90;;;;;;6195765;23;20044;-93
2022/07/15 04:03:03;;;;;;;4.20;1.67;;;12.70;99.90;;;;;;6203851;23;20047;-93
2022/07/15 04:05:29;;;;;;;6.20;1.60;;;12.80;99.90;;;;;;6215058;23;20019;-93
2022/07/15 04:07:55;;;;;;;5.90;1.80;;;12.80;99.90;;;;;;6214614;23;20020;-93
2022/07/15 04:10:21;;;;;;;5.35;1.92;;;12.90;99.90;;;;;;6216784;23;20028;-94
2022/07/15 04:12:47;;;;;;;4.93;1.58;;;12.90;99.90;;;;;;6218486;23;20023;-93
2022/07/15 04:15:14;;;;;;;6.85;1.90;;;12.90;99.90;;;;;;6218245;23;20016;-93
2022/07/15 04:17:42;;;;;;;4.40;1.90;;;13.00;99.90;;;;;;6219073;22;20012;-94
2022/07/15 04:20:09;;;;;;;4.88;1.70;;;12.90;99.90;;;;;;6245221;22;20027;-94
2022/07/15 04:22:42;;;;;;;4.10;1.92;;;13.00;99.90;;;;;;6235943;22;20047;-93
2022/07/15 04:25:11;;;;;;;3.17;1.33;;;13.00;99.90;;;;;;6200976;22;20282;-93
2022/07/15 04:27:37;;;;;;;4.53;1.20;;;13.00;99.90;;;;;;6228237;22;20452;-93
2022/07/15 04:30:07;;;;;;;4.43;1.50;;;13.00;99.90;;;;;;6227663;22;20019;-94
2022/07/15 04:32:34;;;;;;;5.45;1.38;;;13.00;99.90;;;;;;6227954;22;20401;-94
2022/07/15 04:34:59;;;;;;;5.13;1.67;;;13.00;99.90;;;;;;6229688;22;20090;-93
2022/07/15 04:37:28;;;;;;;2.53;1.25;;;13.00;99.90;;;;;;6204018;22;20452;-94
2022/07/15 04:39:54;;;;;;;5.13;1.45;;;13.00;99.90;;;;;;6204187;22;20016;-93
2022/07/15 04:42:21;;;;;;;4.85;1.40;;;12.90;99.90;;;;;;6228326;22;20012;-93
2022/07/15 04:44:47;;;;;;;4.68;1.38;;;13.00;99.90;;;;;;6229073;22;20074;-93
2022/07/15 04:47:16;;;;;;;3.65;1.30;;;13.00;99.90;;;;;;6203471;22;20333;-93
2022/07/15 04:52:29;;;;;;;7.72;1.20;;;12.90;99.90;;;;;;6255251;22;20046;-94
2022/07/15 04:54:56;;;;;;;5.07;1.30;;;13.00;99.90;;;;;;6229064;22;20453;-93
2022/07/15 04:57:24;;;;;;;4.82;1.25;;;13.10;99.90;;;;;;6204419;22;20095;-94
2022/07/15 04:59:52;;;;;;;5.47;1.40;;;13.10;99.90;;;;;;6228974;22;20065;-94
2022/07/15 05:02:18;;;;;;;6.78;1.50;;;13.20;99.90;;;;;;6203859;22;20008;-93
2022/07/15 05:04:44;;;;;;;5.95;1.95;;;13.30;99.90;;;;;;6203324;22;20018;-94
2022/07/15 05:07:12;;;;;;;6.82;1.60;;;13.30;99.90;;;;;;6202843;22;20018;-93
2022/07/15 05:09:38;;;;;;;3.40;1.13;;;13.40;99.90;;;;;;6204130;22;20012;-93
2022/07/15 05:12:05;;;;;;;5.05;1.35;;;13.50;99.90;;;;;;6228342;22;20015;-93
2022/07/15 05:14:31;;;;;;;3.88;1.00;;;13.50;99.90;;;;;;6228403;22;20007;-93
2022/07/15 05:17:00;;;;;;;4.00;0.90;;;13.50;99.90;;;;;;6228482;22;20087;-93
2022/07/15 05:19:26;;;;;;;5.43;1.10;;;13.60;99.90;;;;;;6203180;22;20068;-93
2022/07/15 05:21:54;;;;;;;5.45;1.15;;;13.60;99.90;;;;;;6227580;22;20012;-92
2022/07/15 05:24:20;;;;;;;3.78;1.10;;;13.60;99.90;;;;;;6228701;22;20141;-94
2022/07/15 05:26:46;;;;;;;9.13;1.33;;;13.70;99.90;;;;;;6202937;22;20016;-92
2022/07/15 05:29:12;;;;;;;2.55;0.85;;;13.80;99.90;;;;;;6202694;22;20026;-93
2022/07/15 05:31:38;;;;;;;4.05;1.17;;;13.70;99.90;;;;;;6202620;22;20051;-93
2022/07/15 05:34:04;;;;;;;3.75;1.23;;;13.80;99.90;;;;;;6227471;22;20023;-92
2022/07/15 05:36:30;;;;;;;3.72;0.82;;;14.00;99.90;;;;;;6201243;22;20016;-93
2022/07/15 05:38:56;;;;;;;3.00;0.80;;;14.10;99.90;;;;;;6201781;22;20015;-95
2022/07/15 05:41:22;;;;;;;3.97;1.25;;;14.10;99.90;;;;;;6202619;22;20012;-93
2022/07/15 05:43:48;;;;;;;7.18;2.10;;;14.20;99.90;;;;;;6200934;22;20065;-94
2022/07/15 05:46:14;;;;;;;4.07;1.23;;;14.30;99.90;;;;;;6227525;22;20069;-91
2022/07/15 05:48:41;;;;;;;2.67;1.17;;;14.30;99.90;;;;;;6226440;22;20054;-95
2022/07/15 05:51:09;;;;;;;3.83;1.00;;;14.40;99.90;;;;;;6201237;22;20094;-92
2022/07/15 05:53:35;;;;;;;3.30;0.85;;;14.50;99.90;;;;;;6227164;22;20015;-92
2022/07/15 05:56:01;;;;;;;3.97;0.90;;;14.50;99.90;;;;;;6226263;22;20342;-92
2022/07/15 05:58:27;;;;;;;4.63;1.00;;;14.60;99.90;;;;;;6201229;22;20019;-93
2022/07/15 06:00:53;;;;;;;5.97;1.10;;;14.60;99.90;;;;;;6201775;22;20008;-93
2022/07/15 06:03:19;;;;;;;2.97;0.85;;;14.70;99.90;;;;;;6202119;22;20014;-92
2022/07/15 06:05:46;;;;;;;2.83;0.80;;;14.60;99.90;;;;;;6227036;22;20397;-93
2022/07/15 06:08:12;;;;;;;4.35;1.25;;;14.70;99.90;;;;;;6227961;22;20019;-92
2022/07/15 06:10:38;;;;;;;13.82;1.73;;;14.70;99.90;;;;;;6202714;22;20016;-92
2022/07/15 06:13:04;;;;;;;3.78;1.00;;;14.60;99.90;;;;;;6227597;22;20016;-93
2022/07/15 06:15:32;;;;;;;2.28;1.00;;;14.70;99.90;;;;;;6228444;22;20022;-91
2022/07/15 06:18:06;;;;;;;2.05;0.73;;;14.80;99.90;;;;;;6227509;22;20073;-94
2022/07/15 06:20:32;;;;;;;2.30;0.93;;;14.80;99.90;;;;;;6227660;22;20016;-93
2022/07/15 06:22:58;;;;;;;3.20;0.90;;;14.80;99.90;;;;;;6227850;22;20012;-94
2022/07/15 06:25:24;;;;;;;3.38;0.80;;;14.80;99.90;;;;;;6227345;22;20015;-90
2022/07/15 06:27:50;;;;;;;1.75;0.73;;;14.90;99.90;;;;;;6201385;22;20034;-89
2022/07/15 06:30:16;;;;;;;2.65;0.85;;;14.80;99.90;;;;;;6201667;22;20022;-90
2022/07/15 06:32:41;;;;;;;5.97;0.95;;;14.50;99.90;;;;;;6225364;22;20019;-91
2022/07/15 06:35:08;;;;;;;3.10;0.77;;;14.30;99.90;;;;;;6227263;22;20054;-90
2022/07/15 06:37:33;;;;;;;1.85;0.80;;;14.40;99.90;;;;;;6228355;22;20026;-90
2022/07/15 06:39:59;;;;;;;1.80;0.60;;;14.40;99.90;;;;;;6202002;22;20090;-90
2022/07/15 06:42:25;;;;;;;2.42;0.95;;;14.30;99.90;;;;;;6227589;22;20012;-91
2022/07/15 06:44:52;;;;;;;2.38;1.00;;;14.40;99.90;;;;;;6228913;22;20507;-92
2022/07/15 06:47:18;;;;;;;2.83;1.00;;;14.60;99.90;;;;;;6203287;22;20015;-90
2022/07/15 06:49:44;;;;;;;2.85;1.00;;;14.80;99.90;;;;;;6227166;22;20015;-91
2022/07/15 06:52:10;;;;;;;5.07;1.10;;;14.90;99.90;;;;;;6201278;22;20019;-92
2022/07/15 06:54:36;;;;;;;4.95;1.05;;;15.00;99.90;;;;;;6200775;22;20341;-91
2022/07/15 06:57:04;;;;;;;5.72;1.40;;;15.00;99.90;;;;;;6201110;22;20023;-92
2022/07/15 06:59:30;;;;;;;3.80;1.00;;;15.10;99.90;;;;;;6226299;22;20345;-92
2022/07/15 07:01:56;;;;;;;1.85;0.90;;;15.10;99.90;;;;;;6201400;22;20091;-92
2022/07/15 07:04:22;;;;;;;4.25;1.27;;;15.20;99.90;;;;;;6201701;22;20012;-92
2022/07/15 07:06:48;;;;;;;2.75;1.00;;;15.20;99.90;;;;;;6202065;22;20441;-92
2022/07/15 07:09:14;;;;;;;6.68;2.08;;;15.20;99.90;;;;;;6227304;22;20053;-93
2022/07/15 07:11:40;;;;;;;2.10;0.80;;;15.20;99.90;;;;;;6226806;22;20057;-91
2022/07/15 07:14:09;;;;;;;2.28;0.60;;;15.30;99.90;;;;;;6200854;22;20073;-92
2022/07/15 07:16:35;;;;;;;2.83;1.00;;;15.20;99.90;;;;;;6227218;22;20016;-92
2022/07/15 07:19:01;;;;;;;2.13;0.93;;;15.20;99.90;;;;;;6201707;22;20074;-91
2022/07/15 07:21:27;;;;;;;3.03;0.93;;;15.30;99.90;;;;;;6201974;22;20337;-90
2022/07/15 07:23:53;;;;;;;4.82;1.15;;;15.40;99.90;;;;;;6201340;22;20030;-91
2022/07/15 07:26:19;;;;;;;3.45;0.88;;;15.60;99.90;;;;;;6229372;22;20072;-92
2022/07/15 07:28:46;;;;;;;2.03;0.60;;;15.80;99.90;;;;;;6227734;22;20023;-91
2022/07/15 07:31:16;;;;;;;3.92;0.82;;;15.90;99.90;;;;;;6205067;22;20345;-91
2022/07/15 07:33:42;;;;;;;1.40;0.73;;;16.20;99.90;;;;;;6229119;22;20020;-92
2022/07/15 07:36:09;;;;;;;4.50;1.10;;;16.30;99.90;;;;;;6228991;22;20012;-92
2022/07/15 07:38:41;;;;;;;2.72;0.70;;;16.70;99.90;;;;;;6203193;22;20073;-93
2022/07/15 07:41:13;;;;;;;2.50;0.88;;;16.60;99.90;;;;;;6229571;22;20011;-93
2022/07/15 07:43:41;;;;;;;3.03;0.95;;;16.90;99.90;;;;;;6203160;22;20464;-91
2022/07/15 07:46:06;;;;;;;2.05;0.90;;;16.80;99.90;;;;;;6230445;22;20011;-92
2022/07/15 07:48:33;;;;;;;3.55;1.00;;;16.80;99.90;;;;;;6228390;22;20440;-90
2022/07/15 07:50:59;;;;;;;2.65;0.82;;;16.80;99.90;;;;;;6201428;22;20090;-92
2022/07/15 07:53:26;;;;;;;4.07;1.10;;;16.70;99.90;;;;;;6229088;22;20445;-92
2022/07/15 07:55:53;;;;;;;3.70;1.15;;;16.60;99.90;;;;;;6231996;22;20027;-91
2022/07/15 07:58:22;;;;;;;3.50;1.02;;;16.70;99.90;;;;;;6230378;22;20106;-91
2022/07/15 08:00:52;;;;;;;3.75;0.80;;;16.80;99.90;;;;;;6207724;22;20018;-90
2022/07/15 08:03:21;;;;;;;3.72;0.80;;;16.60;99.90;;;;;;6231020;22;20012;-91
2022/07/15 08:05:49;;;;;;;3.58;0.85;;;16.70;99.90;;;;;;6233165;22;20118;-92
2022/07/15 08:08:19;;;;;;;2.28;0.77;;;16.70;99.90;;;;;;6230842;22;20011;-92
2022/07/15 08:10:48;;;;;;;1.38;0.50;;;16.90;99.90;;;;;;6242140;22;20034;-92
2022/07/15 08:13:25;;;;;;;1.73;0.52;;;16.80;99.90;;;;;;6251848;22;20008;-91
2022/07/15 08:15:56;;;;;;;3.50;0.80;;;16.80;99.90;;;;;;6241703;22;20099;-89
2022/07/15 08:18:25;;;;;;;2.17;0.77;;;17.10;99.90;;;;;;6233754;23;20039;-91
2022/07/15 08:20:52;;;;;;;2.00;0.65;;;17.20;99.90;;;;;;6244090;23;20027;-88
2022/07/15 08:23:20;;;;;;;2.65;0.52;;;17.20;99.90;;;;;;6220145;23;20023;-90
2022/07/15 08:25:49;;;;;;;3.13;0.63;;;17.10;99.90;;;;;;6212635;23;20325;-89
2022/07/15 08:28:17;;;;;;;1.30;0.50;;;16.80;99.90;;;;;;6228585;23;20012;-90
2022/07/15 08:30:50;;;;;;;1.58;0.50;;;16.90;99.90;;;;;;6227786;23;20016;-91
2022/07/15 08:33:18;;;;;;;3.15;0.60;;;17.70;99.90;;;;;;6193681;23;20012;-87
2022/07/15 08:35:47;;;;;;;1.08;0.40;;;18.10;99.90;;;;;;6196874;23;20009;-89
2022/07/15 08:38:13;;;;;;;0.40;0.30;;;17.90;99.90;;;;;;6218298;23;20509;-89
2022/07/15 08:40:42;;;;;;;0.40;0.40;;;17.80;99.90;;;;;;6217971;23;20013;-87
2022/07/15 08:43:12;;;;;;;1.65;0.50;;;17.50;99.90;;;;;;6193481;23;20015;-92
2022/07/15 08:45:41;;;;;;;1.80;0.40;;;17.50;99.90;;;;;;6196336;23;20078;-90
2022/07/15 08:48:08;;;;;;;3.28;0.80;;;17.40;99.90;;;;;;6195541;23;20035;-87
2022/07/15 08:50:47;;;;;;;1.55;0.55;;;17.40;99.90;;;;;;6223243;23;20096;-92
2022/07/15 08:53:13;;;;;;;2.60;0.50;;;17.60;99.90;;;;;;6196973;23;20476;-91
2022/07/15 08:55:39;;;;;;;1.70;0.47;;;17.70;99.90;;;;;;6195359;23;20044;-92
2022/07/15 08:58:09;;;;;;;1.58;0.85;;;18.10;99.90;;;;;;6195416;23;20012;-93
2022/07/15 09:00:38;;;;;;;3.38;0.85;;;18.10;99.90;;;;;;6194205;23;20023;-92
2022/07/15 09:03:05;;;;;;;1.65;0.70;;;18.30;99.90;;;;;;6215983;23;20012;-93
2022/07/15 09:05:33;;;;;;;2.20;0.65;;;18.40;99.90;;;;;;6218647;23;20012;-90
2022/07/15 09:08:14;;;;;;;0.85;0.40;;;18.30;99.90;;;;;;6219141;23;20095;-90
2022/07/15 09:10:55;;;;;;;0.60;0.40;;;18.10;99.90;;;;;;6195097;23;20087;-92
2022/07/15 09:13:43;;;;;;;0.80;0.50;;;18.10;99.90;;;;;;6219817;23;20466;-93
2022/07/15 09:16:11;;;;;;;1.27;0.88;;;18.20;99.90;;;;;;6220064;23;20012;-91
2022/07/15 09:18:40;;;;;;;2.70;0.85;;;18.90;99.90;;;;;;6219472;23;20031;-91
2022/07/15 09:21:20;;;;;;;0.93;0.47;;;19.20;99.90;;;;;;6220897;23;20017;-92
2022/07/15 09:23:46;;;;;;;1.77;0.60;;;19.80;99.90;;;;;;6220830;23;20019;-93
2022/07/15 09:28:54;;;;;;;2.00;0.50;;;20.00;99.90;;;;;;6240829;23;20039;-79
2022/07/15 09:34:21;;;;;;;0.32;0.30;;;19.60;99.90;;;;;;6216314;23;20020;-81
2022/07/15 09:36:53;;;;;;;0.95;0.50;;;19.10;99.90;;;;;;6216470;23;20020;-78
2022/07/15 09:39:22;;;;;;;0.75;0.60;;;18.50;99.90;;;;;;6189970;23;20321;-80
2022/07/15 09:41:48;;;;;;;2.30;0.60;;;17.90;99.90;;;;;;6191512;23;20014;-77
2022/07/15 09:44:19;;;;;;;1.00;0.60;;;17.70;99.90;;;;;;6215731;23;20012;-79
2022/07/15 09:46:49;;;;;;;1.63;0.40;;;17.70;99.90;;;;;;6217001;23;20019;-80
2022/07/15 09:49:24;;;;;;;1.52;0.52;;;18.00;99.90;;;;;;6215844;23;20318;-77
2022/07/15 09:52:11;;;;;;;1.23;0.47;;;18.00;99.90;;;;;;6216995;23;20012;-79
2022/07/15 09:54:48;;;;;;;5.35;0.77;;;17.70;99.90;;;;;;6215864;23;20091;-77
2022/07/15 09:57:17;;;;;;;1.10;0.43;;;17.80;99.90;;;;;;6216488;23;20019;-77
2022/07/15 09:59:45;;;;;;;1.58;0.50;;;18.20;99.90;;;;;;6191126;23;20012;-77
2022/07/15 10:02:12;;;;;;;1.55;0.60;;;18.90;99.90;;;;;;6215734;23;20019;-80
2022/07/15 10:04:39;;;;;;;3.88;0.80;;;19.00;99.90;;;;;;6216198;23;20016;-77
2022/07/15 10:07:06;;;;;;;2.33;0.50;;;19.90;99.90;;;;;;6215599;23;20448;-77
2022/07/15 10:09:34;;;;;;;1.50;0.70;;;20.10;99.90;;;;;;6190124;23;20419;-80
2022/07/15 10:12:15;;;;;;;1.23;0.75;;;20.00;99.90;;;;;;6189782;23;20019;-75
2022/07/15 10:15:03;;;;;;;1.45;0.60;;;20.20;99.90;;;;;;6215259;23;20023;-77
2022/07/15 10:17:29;;;;;;;0.68;0.40;;;19.90;99.90;;;;;;6190733;23;20016;-78
2022/07/15 10:20:00;;;;;;;2.38;0.70;;;19.50;99.90;;;;;;6190636;23;20023;-76
2022/07/15 10:22:35;;;;;;;2.60;0.70;;;19.10;99.90;;;;;;6190461;23;20012;-77
2022/07/15 10:25:18;;;;;;;3.47;0.82;;;19.20;99.90;;;;;;6214765;23;20325;-78
2022/07/15 10:28:15;;;;;;;1.80;0.50;;;19.40;99.90;;;;;;6227680;23;20020;-76
2022/07/15 10:30:42;;;;;;;1.58;0.52;;;19.40;99.90;;;;;;6237031;23;20309;-75
2022/07/15 10:33:18;;;;;;;1.33;0.50;;;19.80;99.90;;;;;;6215009;23;20028;-78
2022/07/15 10:35:52;;;;;;;0.98;0.47;;;19.70;99.90;;;;;;6240433;23;20065;-74
2022/07/15 10:38:24;;;;;;;2.05;0.65;;;19.30;99.90;;;;;;6215649;23;20384;-77
2022/07/15 10:40:56;;;;;;;0.85;0.50;;;19.50;99.90;;;;;;6240517;23;20016;-74
2022/07/15 10:43:37;;;;;;;1.15;0.60;;;19.40;99.90;;;;;;6240593;23;20290;-77
2022/07/15 10:46:06;;;;;;;2.55;0.60;;;19.80;99.90;;;;;;6239739;23;20023;-76
2022/07/15 10:48:32;;;;;;;1.55;0.73;;;19.80;99.90;;;;;;6241548;23;20085;-77
2022/07/15 10:50:59;;;;;;;1.90;0.80;;;19.70;99.90;;;;;;6241077;23;20028;-77
2022/07/15 10:53:27;;;;;;;2.22;0.55;;;19.70;99.90;;;;;;6188842;23;20095;-77
2022/07/15 10:56:16;;;;;;;0.57;0.50;;;19.50;99.90;;;;;;6240987;23;20091;-76
2022/07/15 10:59:15;;;;;;;2.70;0.60;;;19.30;99.90;;;;;;6214539;23;20102;-79
2022/07/15 11:01:43;;;;;;;1.23;0.50;;;18.80;99.90;;;;;;6214838;23;20034;-75
2022/07/15 11:04:24;;;;;;;0.93;0.50;;;18.50;99.90;;;;;;6214958;23;20383;-78
2022/07/15 11:07:09;;;;;;;1.15;0.60;;;18.10;99.90;;;;;;6215002;23;20012;-76
2022/07/15 11:09:45;;;;;;;2.10;0.60;;;17.90;99.90;;;;;;6240018;23;20103;-75
2022/07/15 11:12:11;;;;;;;1.67;0.65;;;17.60;99.90;;;;;;6213907;23;20020;-77
2022/07/15 11:14:43;;;;;;;1.10;0.50;;;17.70;99.90;;;;;;6215336;23;20459;-73
2022/07/15 11:17:10;;;;;;;1.38;0.50;;;17.60;99.90;;;;;;6240254;23;20016;-75
2022/07/15 11:19:37;;;;;;;0.73;0.60;;;17.60;99.90;;;;;;6215044;23;20024;-76
2022/07/15 11:22:02;;;;;;;1.15;0.50;;;17.70;99.90;;;;;;6240882;23;20008;-74
2022/07/15 11:24:28;;;;;;;1.33;0.50;;;17.80;99.90;;;;;;6239464;23;20012;-73
2022/07/15 11:26:54;;;;;;;1.27;0.57;;;17.80;99.90;;;;;;6238904;23;20023;-72
2022/07/15 11:29:20;;;;;;;2.13;0.60;;;17.80;99.90;;;;;;6215265;23;20020;-79
2022/07/15 11:31:48;;;;;;;1.15;0.40;;;17.90;99.90;;;;;;6192367;23;20537;-79
2022/07/15 11:34:16;;;;;;;1.40;0.50;;;18.00;99.90;;;;;;6215310;23;20020;-76
2022/07/15 11:36:42;;;;;;;2.25;0.50;;;18.20;99.90;;;;;;6238450;23;20020;-77
2022/07/15 11:39:09;;;;;;;1.27;0.60;;;18.30;99.90;;;;;;6189901;23;20317;-77
2022/07/15 11:44:32;;;;;;;1.13;0.68;;;18.60;99.90;;;;;;6218700;23;20023;-77
2022/07/15 11:46:59;;;;;;;2.47;0.60;;;18.70;99.90;;;;;;6217578;23;20023;-76
2022/07/15 11:49:38;;;;;;;3.25;0.60;;;18.70;99.90;;;;;;6213276;23;20026;-78
2022/07/15 11:52:06;;;;;;;0.90;0.60;;;18.70;99.90;;;;;;6240420;23;20340;-79
2022/07/15 11:54:35;;;;;;;0.77;0.60;;;19.00;99.90;;;;;;6239896;23;20027;-78
2022/07/15 11:57:08;;;;;;;2.10;0.50;;;19.10;99.90;;;;;;6214454;23;20367;-79
2022/07/15 11:59:34;;;;;;;5.22;0.85;;;19.40;99.90;;;;;;6214171;23;20035;-78
2022/07/15 12:02:12;;;;;;;1.10;0.68;;;19.30;99.90;;;;;;6213869;23;20039;-78
2022/07/15 12:04:39;;;;;;;1.27;0.60;;;19.20;99.90;;;;;;6239439;23;20167;-75
2022/07/15 12:07:07;;;;;;;2.85;0.70;;;19.20;99.90;;;;;;6215546;23;20012;-80
2022/07/15 12:09:44;;;;;;;1.73;0.60;;;19.00;99.90;;;;;;6215436;23;20020;-78
2022/07/15 12:12:10;;;;;;;1.67;0.73;;;19.00;99.90;;;;;;6238525;23;20344;-78
2022/07/15 12:14:37;;;;;;;1.65;0.80;;;18.90;99.90;;;;;;6214686;23;20465;-76
2022/07/15 12:17:04;;;;;;;2.97;1.10;;;18.60;99.90;;;;;;6214747;23;20016;-78
2022/07/15 12:19:31;;;;;;;4.45;1.10;;;18.30;99.90;;;;;;6239740;23;20020;-77
2022/07/15 12:21:59;;;;;;;1.45;0.80;;;18.20;99.90;;;;;;6214272;23;20359;-78
2022/07/15 12:24:26;;;;;;;1.40;1.08;;;17.80;99.90;;;;;;6213996;23;20012;-79
2022/07/15 12:26:56;;;;;;;2.85;1.08;;;17.90;99.90;;;;;;6239832;22;20121;-78
2022/07/15 12:29:27;;;;;;;1.48;0.82;;;17.70;99.90;;;;;;6239839;23;20023;-76
2022/07/15 12:32:09;;;;;;;1.20;1.02;;;17.60;99.90;;;;;;6213954;23;20019;-75
2022/07/15 12:34:58;;;;;;;0.98;0.88;;;17.60;99.90;;;;;;6240075;23;20023;-76
2022/07/15 12:37:30;;;;;;;1.70;1.08;;;17.60;99.90;;;;;;6239375;23;20063;-78
2022/07/15 12:39:58;;;;;;;2.47;0.80;;;17.80;99.90;;;;;;6240227;23;20036;-78
2022/07/15 12:42:50;;;;;;;3.95;0.93;;;18.10;99.90;;;;;;6238556;23;20016;-79
2022/07/15 12:45:22;;;;;;;1.48;0.80;;;18.40;99.90;;;;;;6214215;23;20016;-76
2022/07/15 12:48:01;;;;;;;2.00;0.80;;;18.40;99.90;;;;;;6240021;23;20027;-78
2022/07/15 12:50:34;;;;;;;2.28;0.80;;;18.40;99.90;;;;;;6241267;23;20131;-75
2022/07/15 12:53:00;;;;;;;2.38;0.90;;;18.50;99.90;;;;;;6215636;23;20012;-76
2022/07/15 12:55:31;;;;;;;1.83;1.00;;;18.50;99.90;;;;;;6241154;23;20699;-82
2022/07/15 12:58:09;;;;;;;2.92;1.75;;;18.20;99.90;;;;;;6216527;23;20020;-75
2022/07/15 13:00:37;;;;;;;2.35;0.80;;;18.10;99.90;;;;;;6216648;23;20066;-75
2022/07/15 13:03:10;;;;;;;1.40;0.90;;;18.00;99.90;;;;;;6216247;23;20012;-77
2022/07/15 13:05:40;;;;;;;1.40;0.80;;;18.00;99.90;;;;;;6210309;23;20012;-78
2022/07/15 13:08:14;;;;;;;2.22;0.90;;;17.90;99.90;;;;;;6238514;23;20475;-80